VIJP/JAI METAR and TAF weather

Enter ICAO airport designator
Station Type Date Time Source
VIJP METAR 2021/10/22 19:00 UTC NOAA

VIJP 221900Z VIJP 221900Z VRB03KT 3000 HZ NSC 23/14 Q1013 NOSIG


Station Type Date Time Source
VIJP Decoded METAR 2021/10/22 19:00 UTC NOAA

Jaipur / Sanganer, India (VIJP) 26-49N 075-48E 390M
Oct 22, 2021 - 03:00 PM EDT / 2021.10.22 1900 UTC
Wind: Variable at 3 MPH (3 KT):0
Visibility: 1 mile(s):0
Weather: haze
Temperature: 73 F (23 C)
Dew Point: 57 F (14 C)
Relative Humidity: 56%
Pressure (altimeter): 29.91 in. Hg (1013 hPa)
ob: VIJP 221900Z VIJP 221900Z VRB03KT 3000 HZ NSC 23/14 Q1013 NOSIG
cycle: 19

Station Type Date Time Source
VIJP TAF 2021/10/22 18:00 UTC NOAA

TAF VIJP 221700Z 2218/2324 VRB03KT 3000 HZ NSC
BECMG 2304/2306 25006KT 5000 HZ FEW100
BECMG 2312/2314 VRB03KT 3000 HZ NSC

Example: see airport list